sensor_id;sensor_type;location;lat;lon;timestamp;temperature;humidity
42031;DHT22;27709;52.036;5.906;2023-01-24T00:00:30;3.60;99.90
42031;DHT22;27709;52.036;5.906;2023-01-24T00:02:55;3.60;99.90
42031;DHT22;27709;52.036;5.906;2023-01-24T00:05:21;3.60;99.90
42031;DHT22;27709;52.036;5.906;2023-01-24T00:07:47;3.60;99.90
42031;DHT22;27709;52.036;5.906;2023-01-24T00:10:12;3.60;99.90
42031;DHT22;27709;52.036;5.906;2023-01-24T00:12:38;3.60;99.90
42031;DHT22;27709;52.036;5.906;2023-01-24T00:15:04;3.60;99.90
42031;DHT22;27709;52.036;5.906;2023-01-24T00:17:29;3.60;99.90
42031;DHT22;27709;52.036;5.906;2023-01-24T00:19:55;3.60;99.90
42031;DHT22;27709;52.036;5.906;2023-01-24T00:22:21;3.60;99.90
42031;DHT22;27709;52.036;5.906;2023-01-24T00:24:46;3.60;99.90
42031;DHT22;27709;52.036;5.906;2023-01-24T00:27:14;3.60;99.90
42031;DHT22;27709;52.036;5.906;2023-01-24T00:29:39;3.60;99.90
42031;DHT22;27709;52.036;5.906;2023-01-24T00:32:07;3.60;99.90
42031;DHT22;27709;52.036;5.906;2023-01-24T00:34:33;3.60;99.90
42031;DHT22;27709;52.036;5.906;2023-01-24T00:36:59;3.60;99.90
42031;DHT22;27709;52.036;5.906;2023-01-24T00:39:24;3.60;99.90
42031;DHT22;27709;52.036;5.906;2023-01-24T00:41:50;3.60;99.90
42031;DHT22;27709;52.036;5.906;2023-01-24T00:44:15;3.60;99.90
42031;DHT22;27709;52.036;5.906;2023-01-24T00:46:41;3.60;99.90
42031;DHT22;27709;52.036;5.906;2023-01-24T00:49:07;3.60;99.90
42031;DHT22;27709;52.036;5.906;2023-01-24T00:51:34;3.60;99.90
42031;DHT22;27709;52.036;5.906;2023-01-24T00:54:00;3.60;99.90
42031;DHT22;27709;52.036;5.906;2023-01-24T00:56:26;3.50;99.90
42031;DHT22;27709;52.036;5.906;2023-01-24T00:58:52;3.50;99.90
42031;DHT22;27709;52.036;5.906;2023-01-24T01:01:20;3.50;99.90
42031;DHT22;27709;52.036;5.906;2023-01-24T01:03:45;3.50;99.90
42031;DHT22;27709;52.036;5.906;2023-01-24T01:06:15;3.50;99.90
42031;DHT22;27709;52.036;5.906;2023-01-24T01:08:41;3.50;99.90
42031;DHT22;27709;52.036;5.906;2023-01-24T01:11:07;3.50;99.90
42031;DHT22;27709;52.036;5.906;2023-01-24T01:13:33;3.50;99.90
42031;DHT22;27709;52.036;5.906;2023-01-24T01:16:09;3.50;99.90
42031;DHT22;27709;52.036;5.906;2023-01-24T01:18:36;3.50;99.90
42031;DHT22;27709;52.036;5.906;2023-01-24T01:21:02;3.50;99.90
42031;DHT22;27709;52.036;5.906;2023-01-24T01:23:28;3.50;99.90
42031;DHT22;27709;52.036;5.906;2023-01-24T01:25:59;3.50;99.90
42031;DHT22;27709;52.036;5.906;2023-01-24T01:28:24;3.50;99.90
42031;DHT22;27709;52.036;5.906;2023-01-24T01:30:53;3.50;99.90
42031;DHT22;27709;52.036;5.906;2023-01-24T01:33:19;3.50;99.90
42031;DHT22;27709;52.036;5.906;2023-01-24T01:35:46;3.50;99.90
42031;DHT22;27709;52.036;5.906;2023-01-24T01:38:12;3.50;99.90
42031;DHT22;27709;52.036;5.906;2023-01-24T01:40:37;3.50;99.90
42031;DHT22;27709;52.036;5.906;2023-01-24T01:43:03;3.50;99.90
42031;DHT22;27709;52.036;5.906;2023-01-24T01:45:43;3.50;99.90
42031;DHT22;27709;52.036;5.906;2023-01-24T01:54:14;3.40;99.90
42031;DHT22;27709;52.036;5.906;2023-01-24T01:56:59;3.40;99.90
42031;DHT22;27709;52.036;5.906;2023-01-24T01:59:30;3.40;99.90
42031;DHT22;27709;52.036;5.906;2023-01-24T02:01:57;3.40;99.90
42031;DHT22;27709;52.036;5.906;2023-01-24T02:04:28;3.40;99.90
42031;DHT22;27709;52.036;5.906;2023-01-24T02:07:09;3.40;99.90
42031;DHT22;27709;52.036;5.906;2023-01-24T02:09:45;3.40;99.90
42031;DHT22;27709;52.036;5.906;2023-01-24T02:12:21;3.40;99.90
42031;DHT22;27709;52.036;5.906;2023-01-24T02:14:51;3.30;99.90
42031;DHT22;27709;52.036;5.906;2023-01-24T02:17:36;3.30;99.90
42031;DHT22;27709;52.036;5.906;2023-01-24T02:20:14;3.30;99.90
42031;DHT22;27709;52.036;5.906;2023-01-24T02:22:54;3.30;99.90
42031;DHT22;27709;52.036;5.906;2023-01-24T02:25:36;3.30;99.90
42031;DHT22;27709;52.036;5.906;2023-01-24T02:28:05;3.30;99.90
42031;DHT22;27709;52.036;5.906;2023-01-24T02:30:31;3.20;99.90
42031;DHT22;27709;52.036;5.906;2023-01-24T02:32:57;3.20;99.90
42031;DHT22;27709;52.036;5.906;2023-01-24T02:35:29;3.20;99.90
42031;DHT22;27709;52.036;5.906;2023-01-24T02:37:58;3.30;99.90
42031;DHT22;27709;52.036;5.906;2023-01-24T02:40:27;3.20;99.90
42031;DHT22;27709;52.036;5.906;2023-01-24T02:42:56;3.20;99.90
42031;DHT22;27709;52.036;5.906;2023-01-24T02:45:26;3.20;99.90
42031;DHT22;27709;52.036;5.906;2023-01-24T02:47:53;3.20;99.90
42031;DHT22;27709;52.036;5.906;2023-01-24T02:50:23;3.20;99.90
42031;DHT22;27709;52.036;5.906;2023-01-24T02:52:49;3.30;99.90
42031;DHT22;27709;52.036;5.906;2023-01-24T02:55:33;3.30;99.90
42031;DHT22;27709;52.036;5.906;2023-01-24T02:57:59;3.30;99.90
42031;DHT22;27709;52.036;5.906;2023-01-24T03:00:38;3.30;99.90
42031;DHT22;27709;52.036;5.906;2023-01-24T03:03:05;3.30;99.90
42031;DHT22;27709;52.036;5.906;2023-01-24T03:05:31;3.30;99.90
42031;DHT22;27709;52.036;5.906;2023-01-24T03:08:29;3.20;99.90
42031;DHT22;27709;52.036;5.906;2023-01-24T03:10:55;3.30;99.90
42031;DHT22;27709;52.036;5.906;2023-01-24T03:13:22;3.20;99.90
42031;DHT22;27709;52.036;5.906;2023-01-24T03:16:07;3.20;99.90
42031;DHT22;27709;52.036;5.906;2023-01-24T03:18:51;3.20;99.90
42031;DHT22;27709;52.036;5.906;2023-01-24T03:21:36;3.20;99.90
42031;DHT22;27709;52.036;5.906;2023-01-24T03:24:20;3.10;99.90
42031;DHT22;27709;52.036;5.906;2023-01-24T03:27:04;3.10;99.90
42031;DHT22;27709;52.036;5.906;2023-01-24T03:29:49;3.20;99.90
42031;DHT22;27709;52.036;5.906;2023-01-24T03:32:33;3.20;99.90
42031;DHT22;27709;52.036;5.906;2023-01-24T03:35:17;3.20;99.90
42031;DHT22;27709;52.036;5.906;2023-01-24T03:37:42;3.20;99.90
42031;DHT22;27709;52.036;5.906;2023-01-24T03:40:27;3.10;99.90
42031;DHT22;27709;52.036;5.906;2023-01-24T03:42:53;3.10;99.90
42031;DHT22;27709;52.036;5.906;2023-01-24T03:45:24;3.10;99.90
42031;DHT22;27709;52.036;5.906;2023-01-24T03:47:56;3.00;99.90
42031;DHT22;27709;52.036;5.906;2023-01-24T03:50:36;3.00;99.90
42031;DHT22;27709;52.036;5.906;2023-01-24T03:53:22;3.00;99.90
42031;DHT22;27709;52.036;5.906;2023-01-24T03:55:52;3.10;99.90
42031;DHT22;27709;52.036;5.906;2023-01-24T03:58:18;3.00;99.90
42031;DHT22;27709;52.036;5.906;2023-01-24T04:00:43;3.00;99.90
42031;DHT22;27709;52.036;5.906;2023-01-24T04:03:09;3.00;99.90
42031;DHT22;27709;52.036;5.906;2023-01-24T04:05:35;3.00;99.90
42031;DHT22;27709;52.036;5.906;2023-01-24T04:08:01;3.00;99.90
42031;DHT22;27709;52.036;5.906;2023-01-24T04:10:27;3.00;99.90
42031;DHT22;27709;52.036;5.906;2023-01-24T04:12:53;3.00;99.90
42031;DHT22;27709;52.036;5.906;2023-01-24T04:15:24;3.00;99.90
42031;DHT22;27709;52.036;5.906;2023-01-24T04:17:50;3.00;99.90
42031;DHT22;27709;52.036;5.906;2023-01-24T04:20:16;3.00;99.90
42031;DHT22;27709;52.036;5.906;2023-01-24T04:22:43;2.90;99.90
42031;DHT22;27709;52.036;5.906;2023-01-24T04:25:10;2.90;99.90
42031;DHT22;27709;52.036;5.906;2023-01-24T04:27:36;2.90;99.90
42031;DHT22;27709;52.036;5.906;2023-01-24T04:30:04;2.90;99.90
42031;DHT22;27709;52.036;5.906;2023-01-24T04:32:33;2.90;99.90
42031;DHT22;27709;52.036;5.906;2023-01-24T04:34:59;2.80;99.90
42031;DHT22;27709;52.036;5.906;2023-01-24T04:37:26;2.80;99.90
42031;DHT22;27709;52.036;5.906;2023-01-24T04:39:51;2.80;99.90
42031;DHT22;27709;52.036;5.906;2023-01-24T04:42:17;2.70;99.90
42031;DHT22;27709;52.036;5.906;2023-01-24T04:44:44;2.80;99.90
42031;DHT22;27709;52.036;5.906;2023-01-24T04:47:09;2.80;99.90
42031;DHT22;27709;52.036;5.906;2023-01-24T04:49:35;2.80;99.90
42031;DHT22;27709;52.036;5.906;2023-01-24T04:52:00;2.80;99.90
42031;DHT22;27709;52.036;5.906;2023-01-24T04:54:26;2.80;99.90
42031;DHT22;27709;52.036;5.906;2023-01-24T04:56:51;2.80;99.90
42031;DHT22;27709;52.036;5.906;2023-01-24T04:59:17;2.80;99.90
42031;DHT22;27709;52.036;5.906;2023-01-24T05:01:43;2.80;99.90
42031;DHT22;27709;52.036;5.906;2023-01-24T05:04:08;2.80;99.90
42031;DHT22;27709;52.036;5.906;2023-01-24T05:06:34;2.80;99.90
42031;DHT22;27709;52.036;5.906;2023-01-24T05:09:00;2.90;99.90
42031;DHT22;27709;52.036;5.906;2023-01-24T05:11:26;2.90;99.90
42031;DHT22;27709;52.036;5.906;2023-01-24T05:13:51;3.00;99.90
42031;DHT22;27709;52.036;5.906;2023-01-24T05:16:17;2.90;99.90
42031;DHT22;27709;52.036;5.906;2023-01-24T05:18:43;2.90;99.90
42031;DHT22;27709;52.036;5.906;2023-01-24T05:21:14;2.90;99.90
42031;DHT22;27709;52.036;5.906;2023-01-24T05:23:40;2.80;99.90
42031;DHT22;27709;52.036;5.906;2023-01-24T05:26:07;2.80;99.90
42031;DHT22;27709;52.036;5.906;2023-01-24T05:28:33;2.80;99.90
42031;DHT22;27709;52.036;5.906;2023-01-24T05:31:00;2.80;99.90
42031;DHT22;27709;52.036;5.906;2023-01-24T05:33:26;2.80;99.90
42031;DHT22;27709;52.036;5.906;2023-01-24T05:36:24;2.70;99.90
42031;DHT22;27709;52.036;5.906;2023-01-24T05:38:51;2.70;99.90
42031;DHT22;27709;52.036;5.906;2023-01-24T05:41:18;2.70;99.90
42031;DHT22;27709;52.036;5.906;2023-01-24T05:43:44;2.70;99.90
42031;DHT22;27709;52.036;5.906;2023-01-24T05:46:13;2.70;99.90
42031;DHT22;27709;52.036;5.906;2023-01-24T05:48:39;2.70;99.90
42031;DHT22;27709;52.036;5.906;2023-01-24T05:51:07;2.70;99.90
42031;DHT22;27709;52.036;5.906;2023-01-24T05:53:35;2.70;99.90
42031;DHT22;27709;52.036;5.906;2023-01-24T05:56:03;2.70;99.90
42031;DHT22;27709;52.036;5.906;2023-01-24T05:58:32;2.70;99.90
42031;DHT22;27709;52.036;5.906;2023-01-24T06:00:58;2.60;99.90
42031;DHT22;27709;52.036;5.906;2023-01-24T06:03:25;2.60;99.90
42031;DHT22;27709;52.036;5.906;2023-01-24T06:05:54;2.60;99.90
42031;DHT22;27709;52.036;5.906;2023-01-24T06:08:20;2.60;99.90
42031;DHT22;27709;52.036;5.906;2023-01-24T06:10:47;2.60;99.90
42031;DHT22;27709;52.036;5.906;2023-01-24T06:13:13;2.60;99.90
42031;DHT22;27709;52.036;5.906;2023-01-24T06:15:39;2.50;99.90
42031;DHT22;27709;52.036;5.906;2023-01-24T06:18:06;2.50;99.90
42031;DHT22;27709;52.036;5.906;2023-01-24T06:20:32;2.50;99.90
42031;DHT22;27709;52.036;5.906;2023-01-24T06:23:03;2.50;99.90
42031;DHT22;27709;52.036;5.906;2023-01-24T06:25:29;2.50;99.90
42031;DHT22;27709;52.036;5.906;2023-01-24T06:27:55;2.50;99.90
42031;DHT22;27709;52.036;5.906;2023-01-24T06:30:21;2.60;99.90
42031;DHT22;27709;52.036;5.906;2023-01-24T06:32:59;2.60;99.90
42031;DHT22;27709;52.036;5.906;2023-01-24T06:35:43;2.60;99.90
42031;DHT22;27709;52.036;5.906;2023-01-24T06:38:19;2.70;99.90
42031;DHT22;27709;52.036;5.906;2023-01-24T06:40:47;2.70;99.90
42031;DHT22;27709;52.036;5.906;2023-01-24T06:43:13;2.70;99.90
42031;DHT22;27709;52.036;5.906;2023-01-24T06:45:39;2.70;99.90
42031;DHT22;27709;52.036;5.906;2023-01-24T06:48:04;2.70;99.90
42031;DHT22;27709;52.036;5.906;2023-01-24T06:50:31;2.70;99.90
42031;DHT22;27709;52.036;5.906;2023-01-24T06:52:57;2.70;99.90
42031;DHT22;27709;52.036;5.906;2023-01-24T06:55:23;2.80;99.90
42031;DHT22;27709;52.036;5.906;2023-01-24T06:58:00;2.70;99.90
42031;DHT22;27709;52.036;5.906;2023-01-24T07:00:29;2.70;99.90
42031;DHT22;27709;52.036;5.906;2023-01-24T07:03:02;2.70;99.90
42031;DHT22;27709;52.036;5.906;2023-01-24T07:05:31;2.70;99.90
42031;DHT22;27709;52.036;5.906;2023-01-24T07:07:57;2.70;99.90
42031;DHT22;27709;52.036;5.906;2023-01-24T07:10:23;2.60;99.90
42031;DHT22;27709;52.036;5.906;2023-01-24T07:12:48;2.70;99.90
42031;DHT22;27709;52.036;5.906;2023-01-24T07:15:14;2.60;99.90
42031;DHT22;27709;52.036;5.906;2023-01-24T07:17:40;2.60;99.90
42031;DHT22;27709;52.036;5.906;2023-01-24T07:20:06;2.60;99.90
42031;DHT22;27709;52.036;5.906;2023-01-24T07:22:32;2.60;99.90
42031;DHT22;27709;52.036;5.906;2023-01-24T07:24:58;2.60;99.90
42031;DHT22;27709;52.036;5.906;2023-01-24T07:27:24;2.70;99.90
42031;DHT22;27709;52.036;5.906;2023-01-24T07:29:49;2.70;99.90
42031;DHT22;27709;52.036;5.906;2023-01-24T07:32:15;2.70;99.90
42031;DHT22;27709;52.036;5.906;2023-01-24T07:34:40;2.70;99.90
42031;DHT22;27709;52.036;5.906;2023-01-24T07:37:07;2.70;99.90
42031;DHT22;27709;52.036;5.906;2023-01-24T07:39:33;2.70;99.90
42031;DHT22;27709;52.036;5.906;2023-01-24T07:41:58;2.70;99.90
42031;DHT22;27709;52.036;5.906;2023-01-24T07:44:24;2.60;99.90
42031;DHT22;27709;52.036;5.906;2023-01-24T07:46:49;2.60;99.90
42031;DHT22;27709;52.036;5.906;2023-01-24T07:49:15;2.60;99.90
42031;DHT22;27709;52.036;5.906;2023-01-24T07:51:41;2.60;99.90
42031;DHT22;27709;52.036;5.906;2023-01-24T07:54:06;2.50;99.90
42031;DHT22;27709;52.036;5.906;2023-01-24T07:56:32;2.50;99.90
42031;DHT22;27709;52.036;5.906;2023-01-24T07:58:58;2.50;99.90
42031;DHT22;27709;52.036;5.906;2023-01-24T08:01:26;2.50;99.90
42031;DHT22;27709;52.036;5.906;2023-01-24T08:03:56;2.50;99.90
42031;DHT22;27709;52.036;5.906;2023-01-24T08:06:22;2.50;99.90
42031;DHT22;27709;52.036;5.906;2023-01-24T08:08:49;2.50;99.90
42031;DHT22;27709;52.036;5.906;2023-01-24T08:11:14;2.50;99.90
42031;DHT22;27709;52.036;5.906;2023-01-24T08:13:43;2.50;99.90
42031;DHT22;27709;52.036;5.906;2023-01-24T08:16:08;2.50;99.90
42031;DHT22;27709;52.036;5.906;2023-01-24T08:18:36;2.50;99.90
42031;DHT22;27709;52.036;5.906;2023-01-24T08:21:01;2.50;99.90
42031;DHT22;27709;52.036;5.906;2023-01-24T08:23:27;2.50;99.90
42031;DHT22;27709;52.036;5.906;2023-01-24T08:25:52;2.50;99.90
42031;DHT22;27709;52.036;5.906;2023-01-24T08:28:18;2.50;99.90
42031;DHT22;27709;52.036;5.906;2023-01-24T08:30:44;2.50;99.90
42031;DHT22;27709;52.036;5.906;2023-01-24T08:33:09;2.60;99.90
42031;DHT22;27709;52.036;5.906;2023-01-24T08:38:18;2.70;99.90
42031;DHT22;27709;52.036;5.906;2023-01-24T08:40:49;2.70;99.90
42031;DHT22;27709;52.036;5.906;2023-01-24T08:43:22;2.60;99.90
42031;DHT22;27709;52.036;5.906;2023-01-24T08:45:53;2.60;99.90
42031;DHT22;27709;52.036;5.906;2023-01-24T08:48:19;2.60;99.90
42031;DHT22;27709;52.036;5.906;2023-01-24T08:50:45;2.50;99.90
42031;DHT22;27709;52.036;5.906;2023-01-24T08:53:10;2.50;99.90
42031;DHT22;27709;52.036;5.906;2023-01-24T08:55:36;2.60;99.90
42031;DHT22;27709;52.036;5.906;2023-01-24T08:58:03;2.50;99.90
42031;DHT22;27709;52.036;5.906;2023-01-24T09:00:44;2.60;99.90
42031;DHT22;27709;52.036;5.906;2023-01-24T09:03:11;2.50;99.90
42031;DHT22;27709;52.036;5.906;2023-01-24T09:05:37;2.50;99.90
42031;DHT22;27709;52.036;5.906;2023-01-24T09:08:31;2.50;99.90
42031;DHT22;27709;52.036;5.906;2023-01-24T09:11:10;2.50;99.90
42031;DHT22;27709;52.036;5.906;2023-01-24T09:13:42;2.50;99.90
42031;DHT22;27709;52.036;5.906;2023-01-24T09:16:13;2.50;99.90
42031;DHT22;27709;52.036;5.906;2023-01-24T09:18:42;2.50;99.90
42031;DHT22;27709;52.036;5.906;2023-01-24T09:21:30;2.60;99.90
42031;DHT22;27709;52.036;5.906;2023-01-24T09:23:59;2.60;99.90
42031;DHT22;27709;52.036;5.906;2023-01-24T09:26:24;2.60;99.90
42031;DHT22;27709;52.036;5.906;2023-01-24T09:29:10;2.60;99.90
42031;DHT22;27709;52.036;5.906;2023-01-24T09:31:36;2.70;99.90
42031;DHT22;27709;52.036;5.906;2023-01-24T09:34:02;2.70;99.90
42031;DHT22;27709;52.036;5.906;2023-01-24T09:36:32;2.70;99.90
42031;DHT22;27709;52.036;5.906;2023-01-24T09:38:58;2.70;99.90
42031;DHT22;27709;52.036;5.906;2023-01-24T09:41:48;2.70;99.90
42031;DHT22;27709;52.036;5.906;2023-01-24T09:44:48;2.70;99.90
42031;DHT22;27709;52.036;5.906;2023-01-24T09:47:25;2.70;99.90
42031;DHT22;27709;52.036;5.906;2023-01-24T09:50:00;2.70;99.90
42031;DHT22;27709;52.036;5.906;2023-01-24T09:52:36;2.70;99.90
42031;DHT22;27709;52.036;5.906;2023-01-24T09:57:50;2.70;99.90
42031;DHT22;27709;52.036;5.906;2023-01-24T10:00:29;2.70;99.90
42031;DHT22;27709;52.036;5.906;2023-01-24T10:03:01;2.80;99.90
42031;DHT22;27709;52.036;5.906;2023-01-24T10:05:40;2.80;99.90
42031;DHT22;27709;52.036;5.906;2023-01-24T10:08:45;2.80;99.90
42031;DHT22;27709;52.036;5.906;2023-01-24T10:16:55;2.80;99.90
42031;DHT22;27709;52.036;5.906;2023-01-24T10:19:50;2.80;99.90
42031;DHT22;27709;52.036;5.906;2023-01-24T10:25:05;2.90;99.90
42031;DHT22;27709;52.036;5.906;2023-01-24T10:27:38;3.00;99.90
42031;DHT22;27709;52.036;5.906;2023-01-24T10:30:15;3.00;99.90
42031;DHT22;27709;52.036;5.906;2023-01-24T10:32:43;3.00;99.90
42031;DHT22;27709;52.036;5.906;2023-01-24T10:35:17;3.00;99.90
42031;DHT22;27709;52.036;5.906;2023-01-24T10:37:43;3.10;99.90
42031;DHT22;27709;52.036;5.906;2023-01-24T10:40:16;3.10;99.90
42031;DHT22;27709;52.036;5.906;2023-01-24T10:42:42;3.10;99.90
42031;DHT22;27709;52.036;5.906;2023-01-24T10:48:09;3.00;99.90
42031;DHT22;27709;52.036;5.906;2023-01-24T10:50:44;3.00;99.90
42031;DHT22;27709;52.036;5.906;2023-01-24T10:53:27;2.90;99.90
42031;DHT22;27709;52.036;5.906;2023-01-24T10:55:57;2.90;99.90
42031;DHT22;27709;52.036;5.906;2023-01-24T10:58:26;3.00;99.90
42031;DHT22;27709;52.036;5.906;2023-01-24T11:00:57;3.00;99.90
42031;DHT22;27709;52.036;5.906;2023-01-24T11:03:27;3.10;99.90
42031;DHT22;27709;52.036;5.906;2023-01-24T11:05:55;3.10;99.90
42031;DHT22;27709;52.036;5.906;2023-01-24T11:08:26;3.10;99.90
42031;DHT22;27709;52.036;5.906;2023-01-24T11:10:57;3.20;99.90
42031;DHT22;27709;52.036;5.906;2023-01-24T11:13:28;3.20;99.90
42031;DHT22;27709;52.036;5.906;2023-01-24T11:18:28;3.20;99.90
42031;DHT22;27709;52.036;5.906;2023-01-24T11:21:24;3.20;99.90
42031;DHT22;27709;52.036;5.906;2023-01-24T11:26:32;3.10;99.90
42031;DHT22;27709;52.036;5.906;2023-01-24T11:29:18;3.10;99.90
42031;DHT22;27709;52.036;5.906;2023-01-24T11:31:57;3.10;99.90
42031;DHT22;27709;52.036;5.906;2023-01-24T11:37:53;3.20;99.90
42031;DHT22;27709;52.036;5.906;2023-01-24T11:46:05;3.30;99.90
42031;DHT22;27709;52.036;5.906;2023-01-24T11:48:40;3.30;99.90
42031;DHT22;27709;52.036;5.906;2023-01-24T11:59:47;3.40;99.90
42031;DHT22;27709;52.036;5.906;2023-01-24T12:02:26;3.30;99.90
42031;DHT22;27709;52.036;5.906;2023-01-24T12:11:02;3.40;99.90
42031;DHT22;27709;52.036;5.906;2023-01-24T12:13:36;3.40;99.90
42031;DHT22;27709;52.036;5.906;2023-01-24T12:21:45;3.40;99.90
42031;DHT22;27709;52.036;5.906;2023-01-24T12:24:35;3.40;99.90
42031;DHT22;27709;52.036;5.906;2023-01-24T12:27:02;3.50;99.90
42031;DHT22;27709;52.036;5.906;2023-01-24T12:29:38;3.40;99.90
42031;DHT22;27709;52.036;5.906;2023-01-24T12:32:19;3.40;99.90
42031;DHT22;27709;52.036;5.906;2023-01-24T12:34:54;3.40;99.90
42031;DHT22;27709;52.036;5.906;2023-01-24T12:37:45;3.40;99.90
42031;DHT22;27709;52.036;5.906;2023-01-24T12:43:15;3.40;99.90
42031;DHT22;27709;52.036;5.906;2023-01-24T12:51:24;3.30;99.90
42031;DHT22;27709;52.036;5.906;2023-01-24T12:56:46;3.40;99.90
42031;DHT22;27709;52.036;5.906;2023-01-24T12:59:19;3.40;99.90
42031;DHT22;27709;52.036;5.906;2023-01-24T13:07:30;3.40;99.90
42031;DHT22;27709;52.036;5.906;2023-01-24T13:12:40;3.30;99.90
42031;DHT22;27709;52.036;5.906;2023-01-24T13:15:48;3.30;99.90
42031;DHT22;27709;52.036;5.906;2023-01-24T13:18:36;3.40;99.90
42031;DHT22;27709;52.036;5.906;2023-01-24T13:21:23;3.40;99.90
42031;DHT22;27709;52.036;5.906;2023-01-24T13:24:22;3.40;99.90
42031;DHT22;27709;52.036;5.906;2023-01-24T13:27:16;3.40;99.90
42031;DHT22;27709;52.036;5.906;2023-01-24T13:29:46;3.30;99.90
42031;DHT22;27709;52.036;5.906;2023-01-24T13:32:16;3.30;99.90
42031;DHT22;27709;52.036;5.906;2023-01-24T13:34:46;3.20;99.90
42031;DHT22;27709;52.036;5.906;2023-01-24T13:37:31;3.20;99.90
42031;DHT22;27709;52.036;5.906;2023-01-24T13:40:05;3.20;99.90
42031;DHT22;27709;52.036;5.906;2023-01-24T13:42:35;3.30;99.90
42031;DHT22;27709;52.036;5.906;2023-01-24T13:47:49;3.30;99.90
42031;DHT22;27709;52.036;5.906;2023-01-24T13:50:17;3.30;99.90
42031;DHT22;27709;52.036;5.906;2023-01-24T13:52:54;3.20;99.90
42031;DHT22;27709;52.036;5.906;2023-01-24T13:55:48;3.20;99.90
42031;DHT22;27709;52.036;5.906;2023-01-24T13:58:34;3.20;99.90
42031;DHT22;27709;52.036;5.906;2023-01-24T14:01:14;3.10;99.90
42031;DHT22;27709;52.036;5.906;2023-01-24T14:03:56;3.10;99.90
42031;DHT22;27709;52.036;5.906;2023-01-24T14:06:23;3.00;99.90
42031;DHT22;27709;52.036;5.906;2023-01-24T14:11:59;3.10;99.90
42031;DHT22;27709;52.036;5.906;2023-01-24T14:15:00;3.10;99.90
42031;DHT22;27709;52.036;5.906;2023-01-24T14:20:23;3.00;99.90
42031;DHT22;27709;52.036;5.906;2023-01-24T14:22:56;3.00;99.90
42031;DHT22;27709;52.036;5.906;2023-01-24T14:25:46;2.90;99.90
42031;DHT22;27709;52.036;5.906;2023-01-24T14:28:24;2.80;99.90
42031;DHT22;27709;52.036;5.906;2023-01-24T14:30:57;2.80;99.90
42031;DHT22;27709;52.036;5.906;2023-01-24T14:33:42;2.80;99.90
42031;DHT22;27709;52.036;5.906;2023-01-24T14:36:20;2.80;99.90
42031;DHT22;27709;52.036;5.906;2023-01-24T14:39:10;2.80;99.90
42031;DHT22;27709;52.036;5.906;2023-01-24T14:41:35;2.80;99.90
42031;DHT22;27709;52.036;5.906;2023-01-24T14:44:01;2.80;99.90
42031;DHT22;27709;52.036;5.906;2023-01-24T14:46:27;2.80;99.90
42031;DHT22;27709;52.036;5.906;2023-01-24T14:48:52;2.80;99.90
42031;DHT22;27709;52.036;5.906;2023-01-24T14:51:22;2.80;99.90
42031;DHT22;27709;52.036;5.906;2023-01-24T14:53:54;2.80;99.90
42031;DHT22;27709;52.036;5.906;2023-01-24T14:56:21;2.80;99.90
42031;DHT22;27709;52.036;5.906;2023-01-24T14:58:47;2.70;99.90
42031;DHT22;27709;52.036;5.906;2023-01-24T15:01:28;2.70;99.90
42031;DHT22;27709;52.036;5.906;2023-01-24T15:03:54;2.70;99.90
42031;DHT22;27709;52.036;5.906;2023-01-24T15:06:22;2.70;99.90
42031;DHT22;27709;52.036;5.906;2023-01-24T15:08:48;2.70;99.90
42031;DHT22;27709;52.036;5.906;2023-01-24T15:11:21;2.70;99.90
42031;DHT22;27709;52.036;5.906;2023-01-24T15:13:54;2.80;99.90
42031;DHT22;27709;52.036;5.906;2023-01-24T15:16:23;2.80;99.90
42031;DHT22;27709;52.036;5.906;2023-01-24T15:18:51;2.80;99.90
42031;DHT22;27709;52.036;5.906;2023-01-24T15:21:28;2.70;99.90
42031;DHT22;27709;52.036;5.906;2023-01-24T15:23:56;2.70;99.90
42031;DHT22;27709;52.036;5.906;2023-01-24T15:28:56;2.60;99.90
42031;DHT22;27709;52.036;5.906;2023-01-24T15:31:27;2.60;99.90
42031;DHT22;27709;52.036;5.906;2023-01-24T15:33:55;2.60;99.90
42031;DHT22;27709;52.036;5.906;2023-01-24T15:36:31;2.60;99.90
42031;DHT22;27709;52.036;5.906;2023-01-24T15:38:59;2.50;99.90
42031;DHT22;27709;52.036;5.906;2023-01-24T15:41:26;2.50;99.90
42031;DHT22;27709;52.036;5.906;2023-01-24T15:44:11;2.50;99.90
42031;DHT22;27709;52.036;5.906;2023-01-24T15:46:39;2.50;99.90
42031;DHT22;27709;52.036;5.906;2023-01-24T15:52:14;2.50;99.90
42031;DHT22;27709;52.036;5.906;2023-01-24T15:54:43;2.60;99.90
42031;DHT22;27709;52.036;5.906;2023-01-24T15:57:21;2.60;99.90
42031;DHT22;27709;52.036;5.906;2023-01-24T16:00:03;2.50;99.90
42031;DHT22;27709;52.036;5.906;2023-01-24T16:02:38;2.50;99.90
42031;DHT22;27709;52.036;5.906;2023-01-24T16:07:38;2.50;99.90
42031;DHT22;27709;52.036;5.906;2023-01-24T16:10:04;2.50;99.90
42031;DHT22;27709;52.036;5.906;2023-01-24T16:12:32;2.40;99.90
42031;DHT22;27709;52.036;5.906;2023-01-24T16:14:58;2.40;99.90
42031;DHT22;27709;52.036;5.906;2023-01-24T16:17:25;2.40;99.90
42031;DHT22;27709;52.036;5.906;2023-01-24T16:19:50;2.40;99.90
42031;DHT22;27709;52.036;5.906;2023-01-24T16:22:16;2.40;99.90
42031;DHT22;27709;52.036;5.906;2023-01-24T16:24:42;2.30;99.90
42031;DHT22;27709;52.036;5.906;2023-01-24T16:27:14;2.30;99.90
42031;DHT22;27709;52.036;5.906;2023-01-24T16:29:40;2.30;99.90
42031;DHT22;27709;52.036;5.906;2023-01-24T16:32:21;2.30;99.90
42031;DHT22;27709;52.036;5.906;2023-01-24T16:34:48;2.30;99.90
42031;DHT22;27709;52.036;5.906;2023-01-24T16:37:15;2.30;99.90
42031;DHT22;27709;52.036;5.906;2023-01-24T16:39:42;2.30;99.90
42031;DHT22;27709;52.036;5.906;2023-01-24T16:42:14;2.20;99.90
42031;DHT22;27709;52.036;5.906;2023-01-24T16:44:41;2.20;99.90
42031;DHT22;27709;52.036;5.906;2023-01-24T16:47:06;2.20;99.90
42031;DHT22;27709;52.036;5.906;2023-01-24T16:49:32;2.20;99.90
42031;DHT22;27709;52.036;5.906;2023-01-24T16:51:58;2.20;99.90
42031;DHT22;27709;52.036;5.906;2023-01-24T16:54:24;2.20;99.90
42031;DHT22;27709;52.036;5.906;2023-01-24T16:56:50;2.20;99.90
42031;DHT22;27709;52.036;5.906;2023-01-24T16:59:15;2.20;99.90
42031;DHT22;27709;52.036;5.906;2023-01-24T17:01:41;2.20;99.90
42031;DHT22;27709;52.036;5.906;2023-01-24T17:04:07;2.20;99.90
42031;DHT22;27709;52.036;5.906;2023-01-24T17:06:32;2.20;99.90
42031;DHT22;27709;52.036;5.906;2023-01-24T17:08:59;2.30;99.90
42031;DHT22;27709;52.036;5.906;2023-01-24T17:11:25;2.20;99.90
42031;DHT22;27709;52.036;5.906;2023-01-24T17:13:50;2.20;99.90
42031;DHT22;27709;52.036;5.906;2023-01-24T17:16:16;2.20;99.90
42031;DHT22;27709;52.036;5.906;2023-01-24T17:18:42;2.30;99.90
42031;DHT22;27709;52.036;5.906;2023-01-24T17:21:10;2.40;99.90
42031;DHT22;27709;52.036;5.906;2023-01-24T17:23:37;2.40;99.90
42031;DHT22;27709;52.036;5.906;2023-01-24T17:28:30;2.40;99.90
42031;DHT22;27709;52.036;5.906;2023-01-24T17:30:56;2.50;99.90
42031;DHT22;27709;52.036;5.906;2023-01-24T17:33:22;2.50;99.90
42031;DHT22;27709;52.036;5.906;2023-01-24T17:35:47;2.50;99.90
42031;DHT22;27709;52.036;5.906;2023-01-24T17:38:13;2.40;99.90
42031;DHT22;27709;52.036;5.906;2023-01-24T17:40:38;2.40;99.90
42031;DHT22;27709;52.036;5.906;2023-01-24T17:43:04;2.30;99.90